sensor_id;sensor_type;location;lat;lon;timestamp;temperature;humidity
9668;DHT22;4872;48.316;10.650;2023-03-01T05:08:37;0.40;90.30
9668;DHT22;4872;48.316;10.650;2023-03-01T05:11:05;0.60;90.60
9668;DHT22;4872;48.316;10.650;2023-03-01T05:13:34;0.40;90.20
9668;DHT22;4872;48.316;10.650;2023-03-01T05:16:02;0.40;90.40
9668;DHT22;4872;48.316;10.650;2023-03-01T05:18:31;0.30;90.40
9668;DHT22;4872;48.316;10.650;2023-03-01T05:21:03;0.30;90.40
9668;DHT22;4872;48.316;10.650;2023-03-01T05:23:30;0.50;90.40
9668;DHT22;4872;48.316;10.650;2023-03-01T05:25:58;0.40;90.20
9668;DHT22;4872;48.316;10.650;2023-03-01T05:28:26;0.40;90.30
9668;DHT22;4872;48.316;10.650;2023-03-01T05:30:53;0.40;90.30
9668;DHT22;4872;48.316;10.650;2023-03-01T05:33:20;0.30;90.40
9668;DHT22;4872;48.316;10.650;2023-03-01T05:35:48;0.40;90.50
9668;DHT22;4872;48.316;10.650;2023-03-01T05:38:16;0.50;90.40
9668;DHT22;4872;48.316;10.650;2023-03-01T05:40:44;0.70;90.30
9668;DHT22;4872;48.316;10.650;2023-03-01T05:43:13;0.30;90.20
9668;DHT22;4872;48.316;10.650;2023-03-01T05:45:41;0.20;90.20
9668;DHT22;4872;48.316;10.650;2023-03-01T05:48:09;0.10;90.20
9668;DHT22;4872;48.316;10.650;2023-03-01T05:50:38;0.10;90.30
9668;DHT22;4872;48.316;10.650;2023-03-01T05:53:07;0.10;90.40
9668;DHT22;4872;48.316;10.650;2023-03-01T05:55:36;0.10;90.20
9668;DHT22;4872;48.316;10.650;2023-03-01T05:58:05;0.10;90.30
9668;DHT22;4872;48.316;10.650;2023-03-01T06:00:33;0.10;90.10
9668;DHT22;4872;48.316;10.650;2023-03-01T06:03:01;0.10;90.20
9668;DHT22;4872;48.316;10.650;2023-03-01T06:05:28;0.10;90.00
9668;DHT22;4872;48.316;10.650;2023-03-01T06:07:58;0.00;90.00
9668;DHT22;4872;48.316;10.650;2023-03-01T06:10:24;0.00;89.70
9668;DHT22;4872;48.316;10.650;2023-03-01T06:12:51;0.00;89.80
9668;DHT22;4872;48.316;10.650;2023-03-01T06:15:18;-0.10;89.70
9668;DHT22;4872;48.316;10.650;2023-03-01T06:17:46;-0.10;90.10
9668;DHT22;4872;48.316;10.650;2023-03-01T06:20:15;-0.20;89.70
9668;DHT22;4872;48.316;10.650;2023-03-01T06:22:42;-0.20;89.80
9668;DHT22;4872;48.316;10.650;2023-03-01T06:25:10;-0.30;90.10
9668;DHT22;4872;48.316;10.650;2023-03-01T06:27:38;-0.30;90.20
9668;DHT22;4872;48.316;10.650;2023-03-01T06:30:06;-0.30;90.30
9668;DHT22;4872;48.316;10.650;2023-03-01T06:32:33;-0.20;90.30
9668;DHT22;4872;48.316;10.650;2023-03-01T06:35:01;-0.20;90.30
9668;DHT22;4872;48.316;10.650;2023-03-01T06:37:28;-0.20;90.40
9668;DHT22;4872;48.316;10.650;2023-03-01T06:39:55;-0.30;90.30
9668;DHT22;4872;48.316;10.650;2023-03-01T06:42:22;-0.20;90.40
9668;DHT22;4872;48.316;10.650;2023-03-01T06:44:49;-0.20;90.40
9668;DHT22;4872;48.316;10.650;2023-03-01T06:47:15;-0.20;90.50
9668;DHT22;4872;48.316;10.650;2023-03-01T06:49:42;-0.20;90.40
9668;DHT22;4872;48.316;10.650;2023-03-01T06:52:10;-0.20;90.40
9668;DHT22;4872;48.316;10.650;2023-03-01T06:54:37;-0.20;90.30
9668;DHT22;4872;48.316;10.650;2023-03-01T06:57:04;-0.20;90.30
9668;DHT22;4872;48.316;10.650;2023-03-01T06:59:30;-0.20;90.40
9668;DHT22;4872;48.316;10.650;2023-03-01T07:01:57;0.20;90.50
9668;DHT22;4872;48.316;10.650;2023-03-01T07:04:24;-0.10;90.20
9668;DHT22;4872;48.316;10.650;2023-03-01T07:06:54;-0.10;90.10
9668;DHT22;4872;48.316;10.650;2023-03-01T07:09:22;-0.10;90.20
9668;DHT22;4872;48.316;10.650;2023-03-01T07:11:50;-0.10;90.30
9668;DHT22;4872;48.316;10.650;2023-03-01T07:14:16;-0.10;90.30
9668;DHT22;4872;48.316;10.650;2023-03-01T07:16:45;-0.10;90.10
9668;DHT22;4872;48.316;10.650;2023-03-01T07:19:11;-0.10;90.40
9668;DHT22;4872;48.316;10.650;2023-03-01T07:21:38;-0.10;90.40
9668;DHT22;4872;48.316;10.650;2023-03-01T07:24:06;0.00;90.40
9668;DHT22;4872;48.316;10.650;2023-03-01T07:26:34;0.10;90.30
9668;DHT22;4872;48.316;10.650;2023-03-01T07:29:02;0.10;90.20
9668;DHT22;4872;48.316;10.650;2023-03-01T07:31:29;0.10;90.20
9668;DHT22;4872;48.316;10.650;2023-03-01T07:33:56;0.20;90.40
9668;DHT22;4872;48.316;10.650;2023-03-01T07:36:23;0.20;90.30
9668;DHT22;4872;48.316;10.650;2023-03-01T07:38:50;0.30;90.30
9668;DHT22;4872;48.316;10.650;2023-03-01T07:41:17;0.30;90.20
9668;DHT22;4872;48.316;10.650;2023-03-01T07:43:45;0.30;90.20
9668;DHT22;4872;48.316;10.650;2023-03-01T07:46:12;0.30;90.10
9668;DHT22;4872;48.316;10.650;2023-03-01T07:48:39;0.40;89.90
9668;DHT22;4872;48.316;10.650;2023-03-01T07:51:06;0.50;89.30
9668;DHT22;4872;48.316;10.650;2023-03-01T07:53:34;0.60;89.10
9668;DHT22;4872;48.316;10.650;2023-03-01T07:56:02;0.50;88.90
9668;DHT22;4872;48.316;10.650;2023-03-01T07:58:29;0.60;88.70
9668;DHT22;4872;48.316;10.650;2023-03-01T08:01:01;0.60;88.60
9668;DHT22;4872;48.316;10.650;2023-03-01T08:03:28;0.60;88.50
9668;DHT22;4872;48.316;10.650;2023-03-01T08:05:55;0.60;87.70
9668;DHT22;4872;48.316;10.650;2023-03-01T08:08:21;1.00;88.70
9668;DHT22;4872;48.316;10.650;2023-03-01T08:10:48;0.80;87.30
9668;DHT22;4872;48.316;10.650;2023-03-01T08:13:15;0.90;87.30
9668;DHT22;4872;48.316;10.650;2023-03-01T08:15:44;1.00;87.30
9668;DHT22;4872;48.316;10.650;2023-03-01T08:18:12;1.20;86.40
9668;DHT22;4872;48.316;10.650;2023-03-01T08:20:39;1.20;86.20
9668;DHT22;4872;48.316;10.650;2023-03-01T08:23:05;1.60;86.10
9668;DHT22;4872;48.316;10.650;2023-03-01T08:25:32;1.60;85.30
9668;DHT22;4872;48.316;10.650;2023-03-01T08:27:59;1.50;85.70
9668;DHT22;4872;48.316;10.650;2023-03-01T08:30:26;1.50;85.80
9668;DHT22;4872;48.316;10.650;2023-03-01T08:32:52;1.60;84.50
9668;DHT22;4872;48.316;10.650;2023-03-01T08:35:21;1.50;85.00
9668;DHT22;4872;48.316;10.650;2023-03-01T08:37:48;1.40;85.40
9668;DHT22;4872;48.316;10.650;2023-03-01T08:40:15;1.50;85.00
9668;DHT22;4872;48.316;10.650;2023-03-01T08:42:42;1.50;85.60
9668;DHT22;4872;48.316;10.650;2023-03-01T08:45:10;1.60;85.50
9668;DHT22;4872;48.316;10.650;2023-03-01T08:47:37;1.60;85.60
9668;DHT22;4872;48.316;10.650;2023-03-01T08:50:04;1.60;85.50
9668;DHT22;4872;48.316;10.650;2023-03-01T08:52:33;1.70;84.70
9668;DHT22;4872;48.316;10.650;2023-03-01T08:55:00;1.70;85.00
9668;DHT22;4872;48.316;10.650;2023-03-01T08:57:27;1.70;85.90
9668;DHT22;4872;48.316;10.650;2023-03-01T08:59:54;1.70;84.90
9668;DHT22;4872;48.316;10.650;2023-03-01T09:02:22;1.80;85.30
9668;DHT22;4872;48.316;10.650;2023-03-01T09:04:49;1.70;85.60
9668;DHT22;4872;48.316;10.650;2023-03-01T09:07:15;1.70;84.60
9668;DHT22;4872;48.316;10.650;2023-03-01T09:09:43;1.80;85.00
9668;DHT22;4872;48.316;10.650;2023-03-01T09:12:10;1.80;84.80
9668;DHT22;4872;48.316;10.650;2023-03-01T09:14:37;1.80;84.10
9668;DHT22;4872;48.316;10.650;2023-03-01T09:17:04;1.70;84.70
9668;DHT22;4872;48.316;10.650;2023-03-01T09:19:31;1.70;85.80
9668;DHT22;4872;48.316;10.650;2023-03-01T09:21:57;1.70;85.80
9668;DHT22;4872;48.316;10.650;2023-03-01T09:24:24;1.80;84.80
9668;DHT22;4872;48.316;10.650;2023-03-01T09:26:54;1.80;84.50
9668;DHT22;4872;48.316;10.650;2023-03-01T09:29:22;1.90;85.50
9668;DHT22;4872;48.316;10.650;2023-03-01T09:31:49;1.90;86.00
9668;DHT22;4872;48.316;10.650;2023-03-01T09:34:16;1.90;85.60
9668;DHT22;4872;48.316;10.650;2023-03-01T09:36:48;2.00;85.60
9668;DHT22;4872;48.316;10.650;2023-03-01T09:39:15;1.90;86.00
9668;DHT22;4872;48.316;10.650;2023-03-01T09:41:46;1.90;85.50
9668;DHT22;4872;48.316;10.650;2023-03-01T09:44:29;2.00;85.70
9668;DHT22;4872;48.316;10.650;2023-03-01T09:46:58;2.10;84.30
9668;DHT22;4872;48.316;10.650;2023-03-01T09:49:26;2.10;84.90
9668;DHT22;4872;48.316;10.650;2023-03-01T09:51:59;2.20;85.00
9668;DHT22;4872;48.316;10.650;2023-03-01T09:54:27;2.40;84.90
9668;DHT22;4872;48.316;10.650;2023-03-01T09:57:05;2.50;84.50
9668;DHT22;4872;48.316;10.650;2023-03-01T09:59:43;2.60;84.40
9668;DHT22;4872;48.316;10.650;2023-03-01T10:02:24;2.70;84.20
9668;DHT22;4872;48.316;10.650;2023-03-01T10:04:55;2.70;83.60
9668;DHT22;4872;48.316;10.650;2023-03-01T10:07:32;2.80;83.90
9668;DHT22;4872;48.316;10.650;2023-03-01T10:10:05;2.90;83.50
9668;DHT22;4872;48.316;10.650;2023-03-01T10:12:35;2.90;83.30
9668;DHT22;4872;48.316;10.650;2023-03-01T10:15:07;2.80;83.10
9668;DHT22;4872;48.316;10.650;2023-03-01T10:17:41;2.90;83.90
9668;DHT22;4872;48.316;10.650;2023-03-01T10:20:17;3.00;82.70
9668;DHT22;4872;48.316;10.650;2023-03-01T10:22:44;3.00;83.00
9668;DHT22;4872;48.316;10.650;2023-03-01T10:25:17;3.00;82.10
9668;DHT22;4872;48.316;10.650;2023-03-01T10:27:52;3.10;82.30
9668;DHT22;4872;48.316;10.650;2023-03-01T10:30:26;3.20;82.60
9668;DHT22;4872;48.316;10.650;2023-03-01T10:32:57;3.20;81.20
9668;DHT22;4872;48.316;10.650;2023-03-01T10:35:26;3.30;81.40
9668;DHT22;4872;48.316;10.650;2023-03-01T10:37:58;3.40;80.90
9668;DHT22;4872;48.316;10.650;2023-03-01T10:40:25;3.60;80.70
9668;DHT22;4872;48.316;10.650;2023-03-01T10:42:52;3.70;79.90
9668;DHT22;4872;48.316;10.650;2023-03-01T10:45:31;4.00;80.20
9668;DHT22;4872;48.316;10.650;2023-03-01T10:48:10;4.40;80.60
9668;DHT22;4872;48.316;10.650;2023-03-01T10:50:39;5.00;79.20
9668;DHT22;4872;48.316;10.650;2023-03-01T10:53:21;5.70;78.10
9668;DHT22;4872;48.316;10.650;2023-03-01T10:55:57;6.30;76.10
9668;DHT22;4872;48.316;10.650;2023-03-01T10:58:24;6.70;73.50
9668;DHT22;4872;48.316;10.650;2023-03-01T11:00:55;7.10;72.10
9668;DHT22;4872;48.316;10.650;2023-03-01T11:03:24;7.10;71.40
9668;DHT22;4872;48.316;10.650;2023-03-01T11:06:03;7.30;70.90
9668;DHT22;4872;48.316;10.650;2023-03-01T11:08:39;7.30;69.40
9668;DHT22;4872;48.316;10.650;2023-03-01T11:11:20;7.40;69.60
9668;DHT22;4872;48.316;10.650;2023-03-01T11:13:52;7.70;71.30
9668;DHT22;4872;48.316;10.650;2023-03-01T11:16:27;8.20;71.80
9668;DHT22;4872;48.316;10.650;2023-03-01T11:19:00;8.90;70.60
9668;DHT22;4872;48.316;10.650;2023-03-01T11:21:29;9.30;68.60
9668;DHT22;4872;48.316;10.650;2023-03-01T11:23:58;9.50;67.50
9668;DHT22;4872;48.316;10.650;2023-03-01T11:26:27;9.70;65.70
9668;DHT22;4872;48.316;10.650;2023-03-01T11:28:58;10.00;65.50
9668;DHT22;4872;48.316;10.650;2023-03-01T11:31:28;10.40;65.20
9668;DHT22;4872;48.316;10.650;2023-03-01T11:33:59;11.10;64.40
9668;DHT22;4872;48.316;10.650;2023-03-01T11:36:31;11.10;61.90
9668;DHT22;4872;48.316;10.650;2023-03-01T11:39:04;11.40;61.70
9668;DHT22;4872;48.316;10.650;2023-03-01T11:41:34;11.50;61.50
9668;DHT22;4872;48.316;10.650;2023-03-01T11:44:05;12.00;59.90
9668;DHT22;4872;48.316;10.650;2023-03-01T11:46:50;12.20;59.90
9668;DHT22;4872;48.316;10.650;2023-03-01T11:49:48;11.60;56.20
9668;DHT22;4872;48.316;10.650;2023-03-01T11:52:23;10.80;57.50
9668;DHT22;4872;48.316;10.650;2023-03-01T11:55:00;10.70;58.40
9668;DHT22;4872;48.316;10.650;2023-03-01T11:57:43;10.90;57.90
9668;DHT22;4872;48.316;10.650;2023-03-01T12:00:25;11.30;59.20
9668;DHT22;4872;48.316;10.650;2023-03-01T12:03:19;12.00;59.30
9668;DHT22;4872;48.316;10.650;2023-03-01T12:06:01;13.40;58.30
9668;DHT22;4872;48.316;10.650;2023-03-01T12:08:36;14.00;56.30
9668;DHT22;4872;48.316;10.650;2023-03-01T12:11:14;13.80;55.70
9668;DHT22;4872;48.316;10.650;2023-03-01T12:14:08;13.90;55.20
9668;DHT22;4872;48.316;10.650;2023-03-01T12:17:00;14.40;55.10
9668;DHT22;4872;48.316;10.650;2023-03-01T12:19:51;14.70;53.10
9668;DHT22;4872;48.316;10.650;2023-03-01T12:22:39;14.90;53.10
9668;DHT22;4872;48.316;10.650;2023-03-01T12:25:28;14.80;53.40
9668;DHT22;4872;48.316;10.650;2023-03-01T12:28:25;14.60;52.70
9668;DHT22;4872;48.316;10.650;2023-03-01T12:31:11;15.50;51.50
9668;DHT22;4872;48.316;10.650;2023-03-01T12:33:47;15.00;51.30
9668;DHT22;4872;48.316;10.650;2023-03-01T12:36:32;15.00;51.80
9668;DHT22;4872;48.316;10.650;2023-03-01T12:39:15;14.20;51.60
9668;DHT22;4872;48.316;10.650;2023-03-01T12:41:54;13.80;52.20
9668;DHT22;4872;48.316;10.650;2023-03-01T12:44:39;13.60;52.60
9668;DHT22;4872;48.316;10.650;2023-03-01T12:47:20;13.20;51.80
9668;DHT22;4872;48.316;10.650;2023-03-01T12:49:54;12.70;52.10
9668;DHT22;4872;48.316;10.650;2023-03-01T12:52:28;12.00;53.50
9668;DHT22;4872;48.316;10.650;2023-03-01T12:55:01;11.40;53.90
9668;DHT22;4872;48.316;10.650;2023-03-01T12:57:33;11.50;54.90
9668;DHT22;4872;48.316;10.650;2023-03-01T13:00:17;10.90;56.40
9668;DHT22;4872;48.316;10.650;2023-03-01T13:02:54;10.80;56.60
9668;DHT22;4872;48.316;10.650;2023-03-01T13:05:33;10.30;56.50
9668;DHT22;4872;48.316;10.650;2023-03-01T13:08:07;10.50;56.50
9668;DHT22;4872;48.316;10.650;2023-03-01T13:10:43;10.60;57.80
9668;DHT22;4872;48.316;10.650;2023-03-01T13:13:18;10.10;57.70
9668;DHT22;4872;48.316;10.650;2023-03-01T13:15:46;9.70;59.50
9668;DHT22;4872;48.316;10.650;2023-03-01T13:18:33;9.50;59.40
9668;DHT22;4872;48.316;10.650;2023-03-01T13:21:02;9.50;59.50
9668;DHT22;4872;48.316;10.650;2023-03-01T13:23:35;9.40;59.80
9668;DHT22;4872;48.316;10.650;2023-03-01T13:26:25;9.50;58.30
9668;DHT22;4872;48.316;10.650;2023-03-01T13:28:59;9.50;60.40
9668;DHT22;4872;48.316;10.650;2023-03-01T13:31:59;9.40;59.50
9668;DHT22;4872;48.316;10.650;2023-03-01T13:34:46;9.50;59.50
9668;DHT22;4872;48.316;10.650;2023-03-01T13:37:21;9.50;58.60
9668;DHT22;4872;48.316;10.650;2023-03-01T13:39:50;9.40;58.50
9668;DHT22;4872;48.316;10.650;2023-03-01T13:42:41;9.00;60.10
9668;DHT22;4872;48.316;10.650;2023-03-01T13:45:34;9.20;60.20
9668;DHT22;4872;48.316;10.650;2023-03-01T13:48:08;9.60;59.00
9668;DHT22;4872;48.316;10.650;2023-03-01T13:50:45;9.50;60.20
9668;DHT22;4872;48.316;10.650;2023-03-01T13:53:17;9.70;59.30
9668;DHT22;4872;48.316;10.650;2023-03-01T13:55:48;9.50;59.70
9668;DHT22;4872;48.316;10.650;2023-03-01T13:58:21;9.80;59.30
9668;DHT22;4872;48.316;10.650;2023-03-01T14:00:55;9.90;58.40
9668;DHT22;4872;48.316;10.650;2023-03-01T14:03:23;9.60;59.60
9668;DHT22;4872;48.316;10.650;2023-03-01T14:08:29;9.40;60.10
9668;DHT22;4872;48.316;10.650;2023-03-01T14:11:13;9.50;59.50
9668;DHT22;4872;48.316;10.650;2023-03-01T14:13:57;9.60;60.60
9668;DHT22;4872;48.316;10.650;2023-03-01T14:16:34;9.40;60.90
9668;DHT22;4872;48.316;10.650;2023-03-01T14:19:14;9.60;60.80
9668;DHT22;4872;48.316;10.650;2023-03-01T14:21:43;9.70;60.10
9668;DHT22;4872;48.316;10.650;2023-03-01T14:24:18;9.60;60.70
9668;DHT22;4872;48.316;10.650;2023-03-01T14:26:47;9.70;60.50
9668;DHT22;4872;48.316;10.650;2023-03-01T14:29:34;9.70;60.30
9668;DHT22;4872;48.316;10.650;2023-03-01T14:32:09;9.60;61.10
9668;DHT22;4872;48.316;10.650;2023-03-01T14:34:42;9.50;61.00
9668;DHT22;4872;48.316;10.650;2023-03-01T14:37:11;9.50;60.70
9668;DHT22;4872;48.316;10.650;2023-03-01T14:39:37;9.50;60.40
9668;DHT22;4872;48.316;10.650;2023-03-01T14:42:06;9.40;61.00
9668;DHT22;4872;48.316;10.650;2023-03-01T14:44:32;9.50;61.60
9668;DHT22;4872;48.316;10.650;2023-03-01T14:47:03;9.50;61.80
9668;DHT22;4872;48.316;10.650;2023-03-01T14:49:31;9.70;61.00
9668;DHT22;4872;48.316;10.650;2023-03-01T14:52:00;10.10;60.50
9668;DHT22;4872;48.316;10.650;2023-03-01T14:54:35;9.80;61.20
9668;DHT22;4872;48.316;10.650;2023-03-01T14:57:03;9.70;60.90
9668;DHT22;4872;48.316;10.650;2023-03-01T14:59:33;9.80;61.20
9668;DHT22;4872;48.316;10.650;2023-03-01T15:02:01;9.80;60.90
9668;DHT22;4872;48.316;10.650;2023-03-01T15:04:28;10.00;60.30
9668;DHT22;4872;48.316;10.650;2023-03-01T15:06:57;10.20;59.80
9668;DHT22;4872;48.316;10.650;2023-03-01T15:09:32;10.40;59.40
9668;DHT22;4872;48.316;10.650;2023-03-01T15:12:00;10.90;59.00
9668;DHT22;4872;48.316;10.650;2023-03-01T15:14:48;11.60;58.40
9668;DHT22;4872;48.316;10.650;2023-03-01T15:17:23;12.60;56.70
9668;DHT22;4872;48.316;10.650;2023-03-01T15:19:51;13.40;56.40
9668;DHT22;4872;48.316;10.650;2023-03-01T15:22:18;14.00;55.70
9668;DHT22;4872;48.316;10.650;2023-03-01T15:24:47;14.70;55.40
9668;DHT22;4872;48.316;10.650;2023-03-01T15:27:17;15.50;54.10
9668;DHT22;4872;48.316;10.650;2023-03-01T15:29:50;15.80;53.40
9668;DHT22;4872;48.316;10.650;2023-03-01T15:32:26;15.80;52.60
9668;DHT22;4872;48.316;10.650;2023-03-01T15:34:53;15.90;52.00
9668;DHT22;4872;48.316;10.650;2023-03-01T15:37:40;15.70;52.70
9668;DHT22;4872;48.316;10.650;2023-03-01T15:40:22;16.50;51.80
9668;DHT22;4872;48.316;10.650;2023-03-01T15:42:57;16.40;51.30
9668;DHT22;4872;48.316;10.650;2023-03-01T15:45:26;16.70;51.20
9668;DHT22;4872;48.316;10.650;2023-03-01T15:47:55;17.10;51.30
9668;DHT22;4872;48.316;10.650;2023-03-01T15:50:25;17.00;50.70
9668;DHT22;4872;48.316;10.650;2023-03-01T15:52:52;16.30;49.50
9668;DHT22;4872;48.316;10.650;2023-03-01T15:55:21;15.90;50.20
9668;DHT22;4872;48.316;10.650;2023-03-01T15:57:48;15.40;49.90
9668;DHT22;4872;48.316;10.650;2023-03-01T16:00:16;14.80;50.50
9668;DHT22;4872;48.316;10.650;2023-03-01T16:02:45;13.80;51.30
9668;DHT22;4872;48.316;10.650;2023-03-01T16:05:21;12.60;52.20
9668;DHT22;4872;48.316;10.650;2023-03-01T16:07:48;11.10;54.00
9668;DHT22;4872;48.316;10.650;2023-03-01T16:10:16;10.30;55.10
9668;DHT22;4872;48.316;10.650;2023-03-01T16:12:43;9.70;57.10
9668;DHT22;4872;48.316;10.650;2023-03-01T16:15:14;9.20;58.20
9668;DHT22;4872;48.316;10.650;2023-03-01T16:17:42;8.70;59.10
9668;DHT22;4872;48.316;10.650;2023-03-01T16:20:11;8.50;60.10
9668;DHT22;4872;48.316;10.650;2023-03-01T16:22:41;8.00;61.40
9668;DHT22;4872;48.316;10.650;2023-03-01T16:25:08;7.80;61.20
9668;DHT22;4872;48.316;10.650;2023-03-01T16:27:35;7.60;62.50
9668;DHT22;4872;48.316;10.650;2023-03-01T16:30:03;7.40;62.80
9668;DHT22;4872;48.316;10.650;2023-03-01T16:32:30;7.30;63.20
9668;DHT22;4872;48.316;10.650;2023-03-01T16:34:57;7.10;63.70
9668;DHT22;4872;48.316;10.650;2023-03-01T16:37:25;7.00;64.40
9668;DHT22;4872;48.316;10.650;2023-03-01T16:39:52;7.20;65.90
9668;DHT22;4872;48.316;10.650;2023-03-01T16:42:19;6.70;65.40
9668;DHT22;4872;48.316;10.650;2023-03-01T16:44:45;6.50;66.40
9668;DHT22;4872;48.316;10.650;2023-03-01T16:47:12;6.40;66.40
9668;DHT22;4872;48.316;10.650;2023-03-01T16:49:39;6.40;66.40
9668;DHT22;4872;48.316;10.650;2023-03-01T16:52:06;6.60;67.00
9668;DHT22;4872;48.316;10.650;2023-03-01T16:54:34;6.30;67.50
9668;DHT22;4872;48.316;10.650;2023-03-01T16:57:01;6.20;67.70
9668;DHT22;4872;48.316;10.650;2023-03-01T16:59:27;6.00;68.30
9668;DHT22;4872;48.316;10.650;2023-03-01T17:01:54;5.80;68.50
9668;DHT22;4872;48.316;10.650;2023-03-01T17:04:21;6.20;69.10
9668;DHT22;4872;48.316;10.650;2023-03-01T17:06:48;5.70;69.90
9668;DHT22;4872;48.316;10.650;2023-03-01T17:09:15;5.60;70.40
9668;DHT22;4872;48.316;10.650;2023-03-01T17:11:44;5.60;70.70
9668;DHT22;4872;48.316;10.650;2023-03-01T17:14:11;6.00;71.10
9668;DHT22;4872;48.316;10.650;2023-03-01T17:16:37;5.90;71.20
9668;DHT22;4872;48.316;10.650;2023-03-01T17:19:04;5.50;71.50
9668;DHT22;4872;48.316;10.650;2023-03-01T17:21:31;5.70;71.60
9668;DHT22;4872;48.316;10.650;2023-03-01T17:23:58;5.60;71.60
9668;DHT22;4872;48.316;10.650;2023-03-01T17:26:25;5.40;71.50
9668;DHT22;4872;48.316;10.650;2023-03-01T17:28:55;6.00;72.40
9668;DHT22;4872;48.316;10.650;2023-03-01T17:31:23;5.40;72.60
9668;DHT22;4872;48.316;10.650;2023-03-01T17:33:50;5.40;73.10
9668;DHT22;4872;48.316;10.650;2023-03-01T17:36:17;5.40;73.20
9668;DHT22;4872;48.316;10.650;2023-03-01T17:38:44;5.40;73.10
9668;DHT22;4872;48.316;10.650;2023-03-01T17:41:11;5.40;73.30
9668;DHT22;4872;48.316;10.650;2023-03-01T17:43:40;5.40;73.20
9668;DHT22;4872;48.316;10.650;2023-03-01T17:46:08;5.40;73.10
9668;DHT22;4872;48.316;10.650;2023-03-01T17:48:35;5.30;73.10
9668;DHT22;4872;48.316;10.650;2023-03-01T17:51:05;5.30;73.10
9668;DHT22;4872;48.316;10.650;2023-03-01T17:53:32;5.30;73.40
9668;DHT22;4872;48.316;10.650;2023-03-01T17:56:00;5.30;73.50
9668;DHT22;4872;48.316;10.650;2023-03-01T17:58:27;5.20;74.10
9668;DHT22;4872;48.316;10.650;2023-03-01T18:00:54;5.20;74.40
9668;DHT22;4872;48.316;10.650;2023-03-01T18:03:22;5.20;74.20
9668;DHT22;4872;48.316;10.650;2023-03-01T18:05:49;4.90;73.90
9668;DHT22;4872;48.316;10.650;2023-03-01T18:08:16;5.10;73.80
9668;DHT22;4872;48.316;10.650;2023-03-01T18:10:42;5.10;73.60
9668;DHT22;4872;48.316;10.650;2023-03-01T18:13:09;5.20;73.80
9668;DHT22;4872;48.316;10.650;2023-03-01T18:15:39;5.10;73.90
9668;DHT22;4872;48.316;10.650;2023-03-01T18:18:05;5.10;74.10
9668;DHT22;4872;48.316;10.650;2023-03-01T18:20:33;5.50;74.60
9668;DHT22;4872;48.316;10.650;2023-03-01T18:23:00;5.20;74.20
9668;DHT22;4872;48.316;10.650;2023-03-01T18:25:27;5.70;74.70
9668;DHT22;4872;48.316;10.650;2023-03-01T18:27:54;5.40;74.30
9668;DHT22;4872;48.316;10.650;2023-03-01T18:30:20;5.40;74.40
9668;DHT22;4872;48.316;10.650;2023-03-01T18:32:47;5.10;74.20
9668;DHT22;4872;48.316;10.650;2023-03-01T18:35:20;5.00;74.40
9668;DHT22;4872;48.316;10.650;2023-03-01T18:37:48;5.00;74.70
9668;DHT22;4872;48.316;10.650;2023-03-01T18:40:15;5.10;74.80
9668;DHT22;4872;48.316;10.650;2023-03-01T18:42:42;5.00;75.10
9668;DHT22;4872;48.316;10.650;2023-03-01T18:45:10;4.90;75.30
9668;DHT22;4872;48.316;10.650;2023-03-01T18:47:38;4.80;75.40
9668;DHT22;4872;48.316;10.650;2023-03-01T18:50:06;4.70;75.30
9668;DHT22;4872;48.316;10.650;2023-03-01T18:52:33;4.60;75.30
9668;DHT22;4872;48.316;10.650;2023-03-01T18:55:01;4.60;75.30
9668;DHT22;4872;48.316;10.650;2023-03-01T18:57:27;4.50;75.20
9668;DHT22;4872;48.316;10.650;2023-03-01T18:59:54;4.40;75.10
9668;DHT22;4872;48.316;10.650;2023-03-01T19:02:21;4.20;75.30
9668;DHT22;4872;48.316;10.650;2023-03-01T19:04:49;4.20;75.10
9668;DHT22;4872;48.316;10.650;2023-03-01T19:07:16;4.70;75.70
9668;DHT22;4872;48.316;10.650;2023-03-01T19:09:42;3.90;75.30
9668;DHT22;4872;48.316;10.650;2023-03-01T19:12:11;3.90;75.60
9668;DHT22;4872;48.316;10.650;2023-03-01T19:14:37;3.80;75.30
9668;DHT22;4872;48.316;10.650;2023-03-01T19:17:04;3.80;75.40
9668;DHT22;4872;48.316;10.650;2023-03-01T19:19:31;3.70;75.50
9668;DHT22;4872;48.316;10.650;2023-03-01T19:21:58;3.70;75.80
9668;DHT22;4872;48.316;10.650;2023-03-01T19:24:25;4.10;75.90
9668;DHT22;4872;48.316;10.650;2023-03-01T19:26:53;3.90;76.10
9668;DHT22;4872;48.316;10.650;2023-03-01T19:29:21;3.50;75.80
9668;DHT22;4872;48.316;10.650;2023-03-01T19:31:48;3.50;75.70
9668;DHT22;4872;48.316;10.650;2023-03-01T19:34:15;3.70;76.30
9668;DHT22;4872;48.316;10.650;2023-03-01T19:36:42;3.40;76.40
9668;DHT22;4872;48.316;10.650;2023-03-01T19:39:10;3.40;76.20
9668;DHT22;4872;48.316;10.650;2023-03-01T19:41:38;3.30;76.50
9668;DHT22;4872;48.316;10.650;2023-03-01T19:44:08;3.30;76.50
9668;DHT22;4872;48.316;10.650;2023-03-01T19:46:36;3.20;76.40
9668;DHT22;4872;48.316;10.650;2023-03-01T19:49:03;3.50;76.60
9668;DHT22;4872;48.316;10.650;2023-03-01T19:51:29;3.50;77.10
9668;DHT22;4872;48.316;10.650;2023-03-01T19:53:57;3.10;76.90
9668;DHT22;4872;48.316;10.650;2023-03-01T19:56:24;3.00;77.00
9668;DHT22;4872;48.316;10.650;2023-03-01T19:58:51;2.90;77.30
9668;DHT22;4872;48.316;10.650;2023-03-01T20:01:25;2.90;78.10
9668;DHT22;4872;48.316;10.650;2023-03-01T20:03:55;2.80;78.20
9668;DHT22;4872;48.316;10.650;2023-03-01T20:06:22;3.30;78.90
9668;DHT22;4872;48.316;10.650;2023-03-01T20:08:50;2.80;78.50
9668;DHT22;4872;48.316;10.650;2023-03-01T20:11:17;3.00;79.00
9668;DHT22;4872;48.316;10.650;2023-03-01T20:13:45;2.90;79.40
9668;DHT22;4872;48.316;10.650;2023-03-01T20:16:15;2.80;79.10
9668;DHT22;4872;48.316;10.650;2023-03-01T20:18:42;2.80;79.30
9668;DHT22;4872;48.316;10.650;2023-03-01T20:21:11;3.00;79.40
9668;DHT22;4872;48.316;10.650;2023-03-01T20:23:38;2.90;79.50
9668;DHT22;4872;48.316;10.650;2023-03-01T20:26:07;2.70;79.90
9668;DHT22;4872;48.316;10.650;2023-03-01T20:28:35;2.70;80.10
9668;DHT22;4872;48.316;10.650;2023-03-01T20:31:04;2.70;80.30
9668;DHT22;4872;48.316;10.650;2023-03-01T20:33:30;2.70;80.50
9668;DHT22;4872;48.316;10.650;2023-03-01T20:35:57;2.70;80.60
9668;DHT22;4872;48.316;10.650;2023-03-01T20:38:26;2.70;80.70
9668;DHT22;4872;48.316;10.650;2023-03-01T20:40:57;2.80;80.60
9668;DHT22;4872;48.316;10.650;2023-03-01T20:43:24;2.80;80.70
9668;DHT22;4872;48.316;10.650;2023-03-01T20:45:50;2.80;80.80
9668;DHT22;4872;48.316;10.650;2023-03-01T20:48:17;3.20;81.10
9668;DHT22;4872;48.316;10.650;2023-03-01T20:50:44;2.70;80.70
9668;DHT22;4872;48.316;10.650;2023-03-01T20:53:11;2.70;80.90
9668;DHT22;4872;48.316;10.650;2023-03-01T20:55:39;2.60;81.10
9668;DHT22;4872;48.316;10.650;2023-03-01T20:58:06;2.60;81.40
9668;DHT22;4872;48.316;10.650;2023-03-01T21:00:33;2.60;81.50
9668;DHT22;4872;48.316;10.650;2023-03-01T21:03:00;2.50;81.50
9668;DHT22;4872;48.316;10.650;2023-03-01T21:05:27;2.40;81.70
9668;DHT22;4872;48.316;10.650;2023-03-01T21:07:54;2.40;82.30
9668;DHT22;4872;48.316;10.650;2023-03-01T21:10:21;2.30;82.30
9668;DHT22;4872;48.316;10.650;2023-03-01T21:12:49;2.30;82.30
9668;DHT22;4872;48.316;10.650;2023-03-01T21:15:16;2.20;82.90
9668;DHT22;4872;48.316;10.650;2023-03-01T21:17:42;2.30;83.30
9668;DHT22;4872;48.316;10.650;2023-03-01T21:20:10;2.20;83.80
9668;DHT22;4872;48.316;10.650;2023-03-01T21:22:37;2.20;83.90
9668;DHT22;4872;48.316;10.650;2023-03-01T21:25:04;2.20;84.00
9668;DHT22;4872;48.316;10.650;2023-03-01T21:27:35;2.30;83.70